Time,TemperatureF,DewpointF,PressureIn,WindDirection,WindDirectionDegrees,WindSpeedMPH,WindSpeedGustMPH,Humidity,HourlyPrecipIn,Conditions,Clouds,dailyrainin,SoftwareType,DateUTC
2013-07-27 00:02:00,66.7,64.9,29.91,West,273,4.0,5.0,94,0.00,,,0.00,Wunderground v.1.15,2013-07-27 05:02:00,
2013-07-27 00:07:00,66.6,64.8,29.92,West,279,4.0,6.0,94,0.00,,,0.00,Wunderground v.1.15,2013-07-27 05:07:00,
2013-07-27 00:12:00,66.6,64.8,29.91,West,273,4.0,4.0,94,0.00,,,0.00,Wunderground v.1.15,2013-07-27 05:12:00,
2013-07-27 00:18:00,66.6,64.8,29.91,WNW,283,4.0,8.0,94,0.00,,,0.00,Wunderground v.1.15,2013-07-27 05:18:00,
2013-07-27 00:24:00,66.6,64.8,29.91,West,265,4.0,5.0,94,0.00,,,0.00,Wunderground v.1.15,2013-07-27 05:24:00,
2013-07-27 00:30:00,66.5,64.4,29.91,West,273,5.0,5.0,93,0.00,,,0.00,Wunderground v.1.15,2013-07-27 05:30:00,
2013-07-27 00:36:00,66.4,64.3,29.91,SE,141,4.0,5.0,93,0.00,,,0.00,Wunderground v.1.15,2013-07-27 05:36:00,
2013-07-27 00:41:00,66.2,63.8,29.91,NW,321,4.0,5.0,92,0.00,,,0.00,Wunderground v.1.15,2013-07-27 05:41:00,
2013-07-27 00:47:00,65.9,63.2,29.91,WNW,301,5.0,6.0,91,0.00,,,0.00,Wunderground v.1.15,2013-07-27 05:47:00,
2013-07-27 00:53:00,65.7,63.0,29.92,WNW,288,4.0,6.0,91,0.00,,,0.00,Wunderground v.1.15,2013-07-27 05:53:00,
2013-07-27 00:59:00,65.5,62.8,29.92,NNW,327,4.0,6.0,91,0.00,,,0.00,Wunderground v.1.15,2013-07-27 05:59:00,
2013-07-27 01:05:00,65.4,62.7,29.92,NW,306,3.0,6.0,91,0.00,,,0.00,Wunderground v.1.15,2013-07-27 06:05:00,
2013-07-27 01:10:00,65.2,62.8,29.92,WNW,291,3.0,3.0,92,0.00,,,0.00,Wunderground v.1.15,2013-07-27 06:10:00,
2013-07-27 01:15:00,64.9,62.2,29.92,WNW,294,3.0,6.0,91,0.00,,,0.00,Wunderground v.1.15,2013-07-27 06:15:00,
2013-07-27 01:21:00,64.8,62.1,29.92,WNW,298,4.0,4.0,91,0.00,,,0.00,Wunderground v.1.15,2013-07-27 06:21:00,
2013-07-27 01:27:00,64.5,61.8,29.92,NW,312,4.0,6.0,91,0.00,,,0.00,Wunderground v.1.15,2013-07-27 06:27:00,
2013-07-27 01:32:00,64.3,61.6,29.93,WNW,299,4.0,4.0,91,0.00,,,0.00,Wunderground v.1.15,2013-07-27 06:32:00,
2013-07-27 01:38:00,64.1,61.4,29.93,NW,311,4.0,6.0,91,0.00,,,0.00,Wunderground v.1.15,2013-07-27 06:38:00,
2013-07-27 01:44:00,63.8,61.1,29.93,WNW,292,3.0,4.0,91,0.00,,,0.00,Wunderground v.1.15,2013-07-27 06:44:00,
2013-07-27 01:49:00,63.7,61.0,29.93,WNW,291,2.0,4.0,91,0.00,,,0.00,Wunderground v.1.15,2013-07-27 06:49:00,
2013-07-27 01:54:00,63.6,60.9,29.93,NW,310,2.0,4.0,91,0.00,,,0.00,Wunderground v.1.15,2013-07-27 06:54:00,
2013-07-27 02:00:00,63.4,60.7,29.93,WNW,300,2.0,3.0,91,0.00,,,0.00,Wunderground v.1.15,2013-07-27 07:00:00,
2013-07-27 02:06:00,63.1,60.4,29.93,WNW,301,2.0,4.0,91,0.00,,,0.00,Wunderground v.1.15,2013-07-27 07:06:00,
2013-07-27 02:11:00,62.9,60.2,29.93,WNW,287,3.0,4.0,91,0.00,,,0.00,Wunderground v.1.15,2013-07-27 07:11:00,
2013-07-27 02:17:00,62.8,60.1,29.93,WNW,294,3.0,4.0,91,0.00,,,0.00,Wunderground v.1.15,2013-07-27 07:17:00,
2013-07-27 02:23:00,62.6,59.9,29.93,WNW,289,2.0,3.0,91,0.00,,,0.00,Wunderground v.1.15,2013-07-27 07:23:00,
2013-07-27 02:29:00,62.5,60.1,29.93,West,277,2.0,7.0,92,0.00,,,0.00,Wunderground v.1.15,2013-07-27 07:29:00,
2013-07-27 02:35:00,62.5,59.8,29.93,West,279,3.0,5.0,91,0.00,,,0.00,Wunderground v.1.15,2013-07-27 07:35:00,
2013-07-27 02:40:00,62.5,59.8,29.93,WNW,282,2.0,4.0,91,0.00,,,0.00,Wunderground v.1.15,2013-07-27 07:40:00,
2013-07-27 02:46:00,62.5,59.8,29.93,West,281,2.0,4.0,91,0.00,,,0.00,Wunderground v.1.15,2013-07-27 07:46:00,
2013-07-27 02:52:00,62.5,59.5,29.93,West,281,2.0,4.0,90,0.00,,,0.00,Wunderground v.1.15,2013-07-27 07:52:00,
2013-07-27 02:57:00,62.4,59.4,29.93,West,278,2.0,5.0,90,0.00,,,0.00,Wunderground v.1.15,2013-07-27 07:57:00,
2013-07-27 03:02:00,62.3,59.3,29.92,West,281,2.0,3.0,90,0.00,,,0.00,Wunderground v.1.15,2013-07-27 08:02:00,
2013-07-27 03:08:00,62.1,59.1,29.93,West,276,2.0,5.0,90,0.00,,,0.00,Wunderground v.1.15,2013-07-27 08:08:00,
2013-07-27 03:14:00,62.0,59.0,29.93,West,279,3.0,3.0,90,0.00,,,0.00,Wunderground v.1.15,2013-07-27 08:14:00,
2013-07-27 03:20:00,61.8,58.8,29.92,West,280,1.0,1.0,90,0.00,,,0.00,Wunderground v.1.15,2013-07-27 08:20:00,
2013-07-27 03:26:00,61.7,58.7,29.93,West,281,1.0,2.0,90,0.00,,,0.00,Wunderground v.1.15,2013-07-27 08:26:00,
2013-07-27 03:32:00,61.5,58.8,29.93,West,280,2.0,2.0,91,0.00,,,0.00,Wunderground v.1.15,2013-07-27 08:32:00,
2013-07-27 03:38:00,61.6,58.6,29.93,West,277,2.0,3.0,90,0.00,,,0.00,Wunderground v.1.15,2013-07-27 08:38:00,
2013-07-27 03:43:00,61.3,58.3,29.93,West,280,2.0,2.0,90,0.00,,,0.00,Wunderground v.1.15,2013-07-27 08:43:00,
2013-07-27 03:48:00,61.0,58.0,29.93,West,279,2.0,2.0,90,0.00,,,0.00,Wunderground v.1.15,2013-07-27 08:48:00,
2013-07-27 03:54:00,60.8,58.2,29.93,West,279,1.0,3.0,91,0.00,,,0.00,Wunderground v.1.15,2013-07-27 08:54:00,
2013-07-27 04:00:00,60.7,58.1,29.93,West,281,2.0,4.0,91,0.00,,,0.00,Wunderground v.1.15,2013-07-27 09:00:00,
2013-07-27 04:06:00,60.4,57.8,29.93,West,279,2.0,4.0,91,0.00,,,0.00,Wunderground v.1.15,2013-07-27 09:06:00,
2013-07-27 04:12:00,60.3,58.0,29.92,West,274,3.0,3.0,92,0.00,,,0.00,Wunderground v.1.15,2013-07-27 09:12:00,
2013-07-27 04:18:00,60.4,58.1,29.92,West,275,3.0,3.0,92,0.00,,,0.00,Wunderground v.1.15,2013-07-27 09:18:00,
2013-07-27 04:23:00,60.3,58.0,29.92,West,271,2.0,3.0,92,0.00,,,0.00,Wunderground v.1.15,2013-07-27 09:23:00,
2013-07-27 04:28:00,60.3,57.7,29.92,West,273,2.0,4.0,91,0.00,,,0.00,Wunderground v.1.15,2013-07-27 09:28:00,
2013-07-27 04:34:00,60.2,57.6,29.93,West,269,2.0,2.0,91,0.00,,,0.00,Wunderground v.1.15,2013-07-27 09:34:00,
2013-07-27 04:39:00,59.9,57.3,29.93,West,271,2.0,3.0,91,0.00,,,0.00,Wunderground v.1.15,2013-07-27 09:39:00,
2013-07-27 04:44:00,59.9,57.6,29.93,West,271,2.0,3.0,92,0.00,,,0.00,Wunderground v.1.15,2013-07-27 09:44:00,
2013-07-27 04:50:00,59.8,57.2,29.93,West,271,2.0,2.0,91,0.00,,,0.00,Wunderground v.1.15,2013-07-27 09:50:00,
2013-07-27 04:56:00,59.5,56.9,29.93,West,269,2.0,3.0,91,0.00,,,0.00,Wunderground v.1.15,2013-07-27 09:56:00,
2013-07-27 05:01:00,59.4,57.1,29.93,West,270,2.0,4.0,92,0.00,,,0.00,Wunderground v.1.15,2013-07-27 10:01:00,
2013-07-27 05:07:00,59.4,57.1,29.93,West,270,3.0,5.0,92,0.00,,,0.00,Wunderground v.1.15,2013-07-27 10:07:00,
2013-07-27 05:13:00,59.5,56.9,29.93,West,271,2.0,4.0,91,0.00,,,0.00,Wunderground v.1.15,2013-07-27 10:13:00,
2013-07-27 05:18:00,59.4,56.8,29.93,West,269,2.0,4.0,91,0.00,,,0.00,Wunderground v.1.15,2013-07-27 10:18:00,
2013-07-27 05:24:00,59.3,56.7,29.93,West,270,3.0,4.0,91,0.00,,,0.00,Wunderground v.1.15,2013-07-27 10:24:00,
2013-07-27 05:30:00,59.2,56.6,29.93,West,271,3.0,3.0,91,0.00,,,0.00,Wunderground v.1.15,2013-07-27 10:30:00,
2013-07-27 05:36:00,59.0,56.7,29.93,West,266,3.0,4.0,92,0.00,,,0.00,Wunderground v.1.15,2013-07-27 10:36:00,
2013-07-27 05:42:00,59.0,56.7,29.94,West,271,3.0,4.0,92,0.00,,,0.00,Wunderground v.1.15,2013-07-27 10:42:00,
2013-07-27 05:47:00,58.8,56.5,29.94,West,269,2.0,4.0,92,0.00,,,0.00,Wunderground v.1.15,2013-07-27 10:47:00,
2013-07-27 05:53:00,58.6,56.3,29.94,West,260,3.0,8.0,92,0.00,,,0.00,Wunderground v.1.15,2013-07-27 10:53:00,
2013-07-27 05:58:00,58.5,56.2,29.94,West,262,4.0,8.0,92,0.00,,,0.00,Wunderground v.1.15,2013-07-27 10:58:00,
2013-07-27 06:04:00,58.4,56.1,29.94,West,264,3.0,5.0,92,0.00,,,0.00,Wunderground v.1.15,2013-07-27 11:04:00,
2013-07-27 06:10:00,58.4,56.4,29.95,West,269,3.0,4.0,93,0.00,,,0.00,Wunderground v.1.15,2013-07-27 11:10:00,
2013-07-27 06:15:00,58.5,56.2,29.95,West,262,3.0,4.0,92,0.00,,,0.00,Wunderground v.1.15,2013-07-27 11:15:00,
2013-07-27 06:20:00,58.5,56.2,29.95,West,269,3.0,7.0,92,0.00,,,0.00,Wunderground v.1.15,2013-07-27 11:20:00,
2013-07-27 06:26:00,58.7,56.4,29.95,West,260,3.0,8.0,92,0.00,,,0.00,Wunderground v.1.15,2013-07-27 11:26:00,
2013-07-27 06:31:00,58.8,56.5,29.95,West,268,4.0,4.0,92,0.00,,,0.00,Wunderground v.1.15,2013-07-27 11:31:00,
2013-07-27 06:37:00,58.9,56.6,29.95,West,262,3.0,5.0,92,0.00,,,0.00,Wunderground v.1.15,2013-07-27 11:37:00,
2013-07-27 06:42:00,59.0,56.7,29.95,West,266,3.0,3.0,92,0.00,,,0.00,Wunderground v.1.15,2013-07-27 11:42:00,
2013-07-27 06:48:00,59.3,56.7,29.95,West,273,3.0,7.0,91,0.00,,,0.00,Wunderground v.1.15,2013-07-27 11:48:00,
2013-07-27 06:54:00,59.4,56.8,29.95,West,273,4.0,4.0,91,0.00,,,0.00,Wunderground v.1.15,2013-07-27 11:54:00,
2013-07-27 07:00:00,59.6,57.0,29.95,West,264,3.0,3.0,91,0.00,,,0.00,Wunderground v.1.15,2013-07-27 12:00:00,
2013-07-27 07:06:00,59.8,57.2,29.95,West,273,3.0,6.0,91,0.00,,,0.00,Wunderground v.1.15,2013-07-27 12:06:00,
2013-07-27 07:11:00,60.2,57.6,29.95,West,271,2.0,3.0,91,0.00,,,0.00,Wunderground v.1.15,2013-07-27 12:11:00,
2013-07-27 07:17:00,60.5,57.6,29.95,West,276,2.0,5.0,90,0.00,,,0.00,Wunderground v.1.15,2013-07-27 12:17:00,
2013-07-27 07:22:00,60.9,57.9,29.95,West,276,3.0,5.0,90,0.00,,,0.00,Wunderground v.1.15,2013-07-27 12:22:00,
2013-07-27 07:28:00,61.4,58.1,29.95,WNW,282,2.0,5.0,89,0.00,,,0.00,Wunderground v.1.15,2013-07-27 12:28:00,
2013-07-27 07:33:00,61.7,58.4,29.95,WNW,287,3.0,4.0,89,0.00,,,0.00,Wunderground v.1.15,2013-07-27 12:33:00,
2013-07-27 07:36:00,61.8,58.2,29.95,WNW,299,4.0,4.0,88,0.00,,,0.00,Wunderground v.1.15,2013-07-27 12:36:00,
2013-07-27 07:42:00,62.1,58.5,29.95,West,264,4.0,7.0,88,0.00,,,0.00,Wunderground v.1.15,2013-07-27 12:42:00,
2013-07-27 07:48:00,62.4,58.5,29.96,WNW,302,4.0,7.0,87,0.00,,,0.00,Wunderground v.1.15,2013-07-27 12:48:00,
2013-07-27 07:53:00,62.9,59.3,29.96,WNW,294,3.0,4.0,88,0.00,,,0.00,Wunderground v.1.15,2013-07-27 12:53:00,
2013-07-27 07:58:00,63.4,59.5,29.96,WNW,303,3.0,7.0,87,0.00,,,0.00,Wunderground v.1.15,2013-07-27 12:58:00,
2013-07-27 08:04:00,63.8,59.2,29.96,NW,304,4.0,7.0,85,0.00,,,0.00,Wunderground v.1.15,2013-07-27 13:04:00,
2013-07-27 08:09:00,63.8,59.2,29.96,WNW,289,4.0,7.0,85,0.00,,,0.00,Wunderground v.1.15,2013-07-27 13:09:00,
2013-07-27 08:14:00,64.1,59.5,29.96,WNW,297,3.0,5.0,85,0.00,,,0.00,Wunderground v.1.15,2013-07-27 13:14:00,
2013-07-27 08:19:00,64.4,59.5,29.96,WNW,291,4.0,5.0,84,0.00,,,0.00,Wunderground v.1.15,2013-07-27 13:19:00,
2013-07-27 08:25:00,64.8,59.9,29.96,NW,321,4.0,6.0,84,0.00,,,0.00,Wunderground v.1.15,2013-07-27 13:25:00,
2013-07-27 08:30:00,65.0,60.0,29.96,NW,306,4.0,6.0,84,0.00,,,0.00,Wunderground v.1.15,2013-07-27 13:30:00,
2013-07-27 08:35:00,65.2,59.9,29.96,WNW,290,4.0,7.0,83,0.00,,,0.00,Wunderground v.1.15,2013-07-27 13:35:00,
2013-07-27 08:41:00,65.6,60.6,29.96,NW,312,3.0,5.0,84,0.00,,,0.00,Wunderground v.1.15,2013-07-27 13:41:00,
2013-07-27 08:47:00,65.5,59.9,29.96,West,281,4.0,8.0,82,0.00,,,0.00,Wunderground v.1.15,2013-07-27 13:47:00,
2013-07-27 08:53:00,65.5,59.9,29.97,NNW,339,5.0,8.0,82,0.00,,,0.00,Wunderground v.1.15,2013-07-27 13:53:00,
2013-07-27 08:59:00,65.3,59.7,29.97,NW,319,5.0,8.0,82,0.00,,,0.00,Wunderground v.1.15,2013-07-27 13:59:00,
2013-07-27 09:05:00,65.2,60.2,29.97,NW,311,4.0,7.0,84,0.00,,,0.00,Wunderground v.1.15,2013-07-27 14:05:00,
2013-07-27 09:11:00,65.3,60.0,29.97,NNW,337,4.0,5.0,83,0.00,,,0.00,Wunderground v.1.15,2013-07-27 14:11:00,
2013-07-27 09:17:00,65.4,60.1,29.96,NW,304,3.0,8.0,83,0.00,,,0.00,Wunderground v.1.15,2013-07-27 14:17:00,
2013-07-27 09:22:00,65.4,60.1,29.96,WNW,295,3.0,5.0,83,0.00,,,0.00,Wunderground v.1.15,2013-07-27 14:22:00,
2013-07-27 09:28:00,65.8,60.2,29.96,NW,315,3.0,5.0,82,0.00,,,0.00,Wunderground v.1.15,2013-07-27 14:28:00,
2013-07-27 09:34:00,66.1,59.7,29.96,West,274,3.0,7.0,80,0.00,,,0.00,Wunderground v.1.15,2013-07-27 14:34:00,
2013-07-27 09:39:00,66.3,60.6,29.96,WNW,302,4.0,7.0,82,0.00,,,0.00,Wunderground v.1.15,2013-07-27 14:39:00,
2013-07-27 09:44:00,66.9,60.9,29.96,WSW,250,3.0,4.0,81,0.00,,,0.00,Wunderground v.1.15,2013-07-27 14:44:00,
2013-07-27 09:50:00,67.4,61.0,29.96,NW,322,2.0,3.0,80,0.00,,,0.00,Wunderground v.1.15,2013-07-27 14:50:00,
2013-07-27 09:55:00,67.7,61.0,29.96,WNW,300,3.0,7.0,79,0.00,,,0.00,Wunderground v.1.15,2013-07-27 14:55:00,
2013-07-27 10:00:00,68.1,61.0,29.96,WNW,293,4.0,6.0,78,0.00,,,0.00,Wunderground v.1.15,2013-07-27 15:00:00,
2013-07-27 10:06:00,68.5,61.0,29.96,WNW,291,4.0,6.0,77,0.00,,,0.00,Wunderground v.1.15,2013-07-27 15:06:00,
2013-07-27 10:12:00,68.3,60.4,29.96,West,264,5.0,8.0,76,0.00,,,0.00,Wunderground v.1.15,2013-07-27 15:12:00,
2013-07-27 10:17:00,67.9,60.1,29.96,West,268,5.0,8.0,76,0.00,,,0.00,Wunderground v.1.15,2013-07-27 15:17:00,
2013-07-27 10:23:00,67.6,59.8,29.96,WNW,291,5.0,6.0,76,0.00,,,0.00,Wunderground v.1.15,2013-07-27 15:23:00,
2013-07-27 10:29:00,67.9,59.7,29.96,West,281,5.0,11.0,75,0.00,,,0.00,Wunderground v.1.15,2013-07-27 15:29:00,
2013-07-27 10:35:00,68.1,59.1,29.96,NW,322,6.0,11.0,73,0.00,,,0.00,Wunderground v.1.15,2013-07-27 15:35:00,
2013-07-27 10:41:00,68.5,59.9,29.97,West,279,5.0,9.0,74,0.00,,,0.00,Wunderground v.1.15,2013-07-27 15:41:00,
2013-07-27 10:47:00,68.6,59.6,29.97,NW,312,4.0,10.0,73,0.00,,,0.00,Wunderground v.1.15,2013-07-27 15:47:00,
2013-07-27 10:53:00,68.9,60.3,29.97,West,264,4.0,7.0,74,0.00,,,0.00,Wunderground v.1.15,2013-07-27 15:53:00,
2013-07-27 10:59:00,68.7,59.3,29.97,WNW,291,5.0,9.0,72,0.00,,,0.00,Wunderground v.1.15,2013-07-27 15:59:00,
2013-07-27 11:05:00,68.4,58.2,29.97,WNW,297,6.0,8.0,70,0.00,,,0.00,Wunderground v.1.15,2013-07-27 16:05:00,
2013-07-27 11:11:00,69.3,59.1,29.97,WNW,290,5.0,7.0,70,0.00,,,0.00,Wunderground v.1.15,2013-07-27 16:11:00,
2013-07-27 11:17:00,69.6,59.4,29.97,WNW,298,5.0,9.0,70,0.00,,,0.00,Wunderground v.1.15,2013-07-27 16:17:00,
2013-07-27 11:23:00,69.7,58.7,29.97,WNW,302,6.0,9.0,68,0.00,,,0.00,Wunderground v.1.15,2013-07-27 16:23:00,
2013-07-27 11:28:00,69.9,57.2,29.97,WNW,285,5.0,9.0,64,0.00,,,0.00,Wunderground v.1.15,2013-07-27 16:28:00,
2013-07-27 11:34:00,70.3,57.5,29.97,WNW,284,6.0,7.0,64,0.00,,,0.00,Wunderground v.1.15,2013-07-27 16:34:00,
2013-07-27 11:40:00,70.3,57.1,29.97,NW,304,6.0,6.0,63,0.00,,,0.00,Wunderground v.1.15,2013-07-27 16:40:00,
2013-07-27 11:46:00,70.3,56.7,29.97,NW,307,6.0,9.0,62,0.00,,,0.00,Wunderground v.1.15,2013-07-27 16:46:00,
2013-07-27 11:52:00,70.5,56.4,29.97,NW,310,5.0,6.0,61,0.00,,,0.00,Wunderground v.1.15,2013-07-27 16:52:00,
2013-07-27 11:58:00,70.6,56.0,29.96,NW,323,4.0,6.0,60,0.00,,,0.00,Wunderground v.1.15,2013-07-27 16:58:00,
2013-07-27 12:04:00,70.5,56.9,29.96,WNW,291,5.0,12.0,62,0.00,,,0.00,Wunderground v.1.15,2013-07-27 17:04:00,
2013-07-27 12:10:00,70.2,56.1,29.96,WNW,299,6.0,9.0,61,0.00,,,0.00,Wunderground v.1.15,2013-07-27 17:10:00,
2013-07-27 12:15:00,69.8,56.2,29.96,NW,306,5.0,9.0,62,0.00,,,0.00,Wunderground v.1.15,2013-07-27 17:15:00,
2013-07-27 12:21:00,70.3,57.1,29.96,WNW,296,5.0,12.0,63,0.00,,,0.00,Wunderground v.1.15,2013-07-27 17:21:00,
2013-07-27 12:26:00,70.9,53.9,29.96,NW,304,6.0,12.0,55,0.00,,,0.00,Wunderground v.1.15,2013-07-27 17:26:00,
2013-07-27 12:32:00,70.7,53.2,29.96,SW,232,7.0,11.0,54,0.00,,,0.00,Wunderground v.1.15,2013-07-27 17:32:00,
2013-07-27 12:38:00,70.6,53.6,29.95,West,277,7.0,11.0,55,0.00,,,0.00,Wunderground v.1.15,2013-07-27 17:38:00,
2013-07-27 12:43:00,70.6,54.1,29.95,NW,314,7.0,10.0,56,0.00,,,0.00,Wunderground v.1.15,2013-07-27 17:43:00,
2013-07-27 12:48:00,70.6,54.1,29.95,West,277,7.0,15.0,56,0.00,,,0.00,Wunderground v.1.15,2013-07-27 17:48:00,
2013-07-27 12:54:00,70.6,52.6,29.95,WNW,287,9.0,11.0,53,0.00,,,0.00,Wunderground v.1.15,2013-07-27 17:54:00,
2013-07-27 13:00:00,70.8,53.8,29.95,West,277,8.0,9.0,55,0.00,,,0.00,Wunderground v.1.15,2013-07-27 18:00:00,
2013-07-27 13:06:00,71.0,53.0,29.95,West,267,8.0,14.0,53,0.00,,,0.00,Wunderground v.1.15,2013-07-27 18:06:00,
2013-07-27 13:12:00,72.0,54.9,29.95,West,275,6.0,7.0,55,0.00,,,0.00,Wunderground v.1.15,2013-07-27 18:12:00,
2013-07-27 13:17:00,71.6,52.0,29.95,NW,309,7.0,16.0,50,0.00,,,0.00,Wunderground v.1.15,2013-07-27 18:17:00,
2013-07-27 13:23:00,71.3,50.6,29.95,NW,321,10.0,14.0,48,0.00,,,0.00,Wunderground v.1.15,2013-07-27 18:23:00,
2013-07-27 13:29:00,71.4,51.2,29.95,West,272,9.0,14.0,49,0.00,,,0.00,Wunderground v.1.15,2013-07-27 18:29:00,
2013-07-27 13:35:00,71.4,52.9,29.95,WNW,298,8.0,14.0,52,0.00,,,0.00,Wunderground v.1.15,2013-07-27 18:35:00,
2013-07-27 13:41:00,70.9,51.3,29.95,WSW,239,7.0,13.0,50,0.00,,,0.00,Wunderground v.1.15,2013-07-27 18:41:00,
2013-07-27 13:47:00,71.0,52.5,29.95,WNW,292,9.0,13.0,52,0.00,,,0.00,Wunderground v.1.15,2013-07-27 18:47:00,
2013-07-27 13:52:00,71.4,51.2,29.95,West,276,9.0,9.0,49,0.00,,,0.00,Wunderground v.1.15,2013-07-27 18:52:00,
2013-07-27 13:57:00,71.3,51.1,29.95,WNW,291,9.0,9.0,49,0.00,,,0.00,Wunderground v.1.15,2013-07-27 18:57:00,
2013-07-27 14:03:00,71.1,51.0,29.95,WNW,283,10.0,12.0,49,0.00,,,0.00,Wunderground v.1.15,2013-07-27 19:03:00,
2013-07-27 14:09:00,71.9,51.7,29.95,West,269,8.0,15.0,49,0.00,,,0.00,Wunderground v.1.15,2013-07-27 19:09:00,
2013-07-27 14:14:00,72.4,51.0,29.95,WSW,251,7.0,13.0,47,0.00,,,0.00,Wunderground v.1.15,2013-07-27 19:14:00,
2013-07-27 14:20:00,72.4,51.0,29.95,WNW,290,7.0,7.0,47,0.00,,,0.00,Wunderground v.1.15,2013-07-27 19:20:00,
2013-07-27 14:26:00,72.3,50.4,29.95,WSW,257,7.0,16.0,46,0.00,,,0.00,Wunderground v.1.15,2013-07-27 19:26:00,
2013-07-27 14:32:00,71.7,51.0,29.95,NNW,335,8.0,9.0,48,0.00,,,0.00,Wunderground v.1.15,2013-07-27 19:32:00,
2013-07-27 14:38:00,70.9,51.3,29.95,West,280,8.0,19.0,50,0.00,,,0.00,Wunderground v.1.15,2013-07-27 19:38:00,
2013-07-27 14:44:00,71.3,52.8,29.95,NNW,346,9.0,9.0,52,0.00,,,0.00,Wunderground v.1.15,2013-07-27 19:44:00,
2013-07-27 14:49:00,71.6,53.0,29.95,NW,325,6.0,9.0,52,0.00,,,0.00,Wunderground v.1.15,2013-07-27 19:49:00,
2013-07-27 14:55:00,71.5,52.4,29.95,NW,306,6.0,13.0,51,0.00,,,0.00,Wunderground v.1.15,2013-07-27 19:55:00,
2013-07-27 15:00:00,71.8,51.6,29.95,WSW,250,7.0,15.0,49,0.00,,,0.00,Wunderground v.1.15,2013-07-27 20:00:00,
2013-07-27 15:05:00,72.0,51.8,29.95,West,271,8.0,15.0,49,0.00,,,0.00,Wunderground v.1.15,2013-07-27 20:05:00,
2013-07-27 15:11:00,71.4,50.7,29.95,NW,310,8.0,8.0,48,0.00,,,0.00,Wunderground v.1.15,2013-07-27 20:11:00,
2013-07-27 15:17:00,70.6,50.5,29.95,WNW,285,7.0,11.0,49,0.00,,,0.00,Wunderground v.1.15,2013-07-27 20:17:00,
2013-07-27 15:23:00,70.5,52.0,29.95,West,273,8.0,9.0,52,0.00,,,0.00,Wunderground v.1.15,2013-07-27 20:23:00,
2013-07-27 15:28:00,70.4,51.4,29.95,NW,318,7.0,11.0,51,0.00,,,0.00,Wunderground v.1.15,2013-07-27 20:28:00,
2013-07-27 15:34:00,70.2,51.7,29.95,WNW,285,6.0,8.0,52,0.00,,,0.00,Wunderground v.1.15,2013-07-27 20:34:00,
2013-07-27 15:40:00,70.5,51.0,29.95,West,270,6.0,9.0,50,0.00,,,0.00,Wunderground v.1.15,2013-07-27 20:40:00,
2013-07-27 15:46:00,70.1,51.1,29.95,NNW,339,7.0,9.0,51,0.00,,,0.00,Wunderground v.1.15,2013-07-27 20:46:00,
2013-07-27 15:52:00,70.5,51.0,29.95,NW,306,7.0,7.0,50,0.00,,,0.00,Wunderground v.1.15,2013-07-27 20:52:00,
2013-07-27 15:58:00,71.5,51.9,29.95,WNW,291,6.0,13.0,50,0.00,,,0.00,Wunderground v.1.15,2013-07-27 20:58:00,
2013-07-27 16:03:00,71.0,50.9,29.95,WNW,288,7.0,12.0,49,0.00,,,0.00,Wunderground v.1.15,2013-07-27 21:03:00,
2013-07-27 16:09:00,70.6,50.0,29.95,WNW,287,6.0,12.0,48,0.00,,,0.00,Wunderground v.1.15,2013-07-27 21:09:00,
2013-07-27 16:14:00,70.3,50.8,29.95,WNW,296,6.0,6.0,50,0.00,,,0.00,Wunderground v.1.15,2013-07-27 21:14:00,
2013-07-27 16:19:00,70.5,52.0,29.95,NNW,334,7.0,11.0,52,0.00,,,0.00,Wunderground v.1.15,2013-07-27 21:19:00,
2013-07-27 16:25:00,70.6,51.1,29.95,NW,314,7.0,8.0,50,0.00,,,0.00,Wunderground v.1.15,2013-07-27 21:25:00,
2013-07-27 16:31:00,70.2,51.2,29.95,North,349,6.0,6.0,51,0.00,,,0.00,Wunderground v.1.15,2013-07-27 21:31:00,
2013-07-27 16:37:00,70.3,51.3,29.95,WNW,302,5.0,6.0,51,0.00,,,0.00,Wunderground v.1.15,2013-07-27 21:37:00,
2013-07-27 16:43:00,70.1,51.1,29.95,West,277,6.0,10.0,51,0.00,,,0.00,Wunderground v.1.15,2013-07-27 21:43:00,
2013-07-27 16:49:00,70.3,51.3,29.95,WNW,296,6.0,10.0,51,0.00,,,0.00,Wunderground v.1.15,2013-07-27 21:49:00,
2013-07-27 16:54:00,70.8,51.2,29.94,West,275,5.0,7.0,50,0.00,,,0.00,Wunderground v.1.15,2013-07-27 21:54:00,
2013-07-27 17:00:00,71.2,51.1,29.94,West,260,5.0,5.0,49,0.00,,,0.00,Wunderground v.1.15,2013-07-27 22:00:00,
2013-07-27 17:06:00,71.9,52.2,29.95,NNW,340,5.0,11.0,50,0.00,,,0.00,Wunderground v.1.15,2013-07-27 22:06:00,
2013-07-27 17:11:00,71.8,52.2,29.95,NW,318,5.0,6.0,50,0.00,,,0.00,Wunderground v.1.15,2013-07-27 22:11:00,
2013-07-27 17:16:00,71.6,52.0,29.95,WNW,289,4.0,8.0,50,0.00,,,0.00,Wunderground v.1.15,2013-07-27 22:16:00,
2013-07-27 17:22:00,70.8,51.2,29.95,NW,319,5.0,5.0,50,0.00,,,0.00,Wunderground v.1.15,2013-07-27 22:22:00,
2013-07-27 17:28:00,70.3,51.3,29.95,West,273,4.0,7.0,51,0.00,,,0.00,Wunderground v.1.15,2013-07-27 22:28:00,
2013-07-27 17:33:00,70.5,52.0,29.94,West,273,3.0,6.0,52,0.00,,,0.00,Wunderground v.1.15,2013-07-27 22:33:00,
2013-07-27 17:38:00,70.7,50.6,29.94,NW,306,5.0,10.0,49,0.00,,,0.00,Wunderground v.1.15,2013-07-27 22:38:00,
2013-07-27 17:44:00,70.3,50.8,29.94,NW,314,6.0,10.0,50,0.00,,,0.00,Wunderground v.1.15,2013-07-27 22:44:00,
2013-07-27 17:49:00,70.2,50.7,29.94,West,265,5.0,10.0,50,0.00,,,0.00,Wunderground v.1.15,2013-07-27 22:49:00,
2013-07-27 17:55:00,70.8,51.8,29.94,NNW,335,5.0,7.0,51,0.00,,,0.00,Wunderground v.1.15,2013-07-27 22:55:00,
2013-07-27 18:00:00,71.4,51.2,29.94,WNW,291,5.0,5.0,49,0.00,,,0.00,Wunderground v.1.15,2013-07-27 23:00:00,
2013-07-27 18:05:00,71.2,51.6,29.94,NNW,327,6.0,10.0,50,0.00,,,0.00,Wunderground v.1.15,2013-07-27 23:05:00,
2013-07-27 18:11:00,70.6,52.1,29.94,West,274,5.0,5.0,52,0.00,,,0.00,Wunderground v.1.15,2013-07-27 23:11:00,
2013-07-27 18:17:00,70.4,50.9,29.94,WNW,303,5.0,7.0,50,0.00,,,0.00,Wunderground v.1.15,2013-07-27 23:17:00,
2013-07-27 18:22:00,70.5,51.0,29.94,NNW,337,5.0,5.0,50,0.00,,,0.00,Wunderground v.1.15,2013-07-27 23:22:00,
2013-07-27 18:28:00,70.7,51.1,29.94,West,279,4.0,9.0,50,0.00,,,0.00,Wunderground v.1.15,2013-07-27 23:28:00,
2013-07-27 18:34:00,70.7,51.1,29.94,WNW,302,4.0,8.0,50,0.00,,,0.00,Wunderground v.1.15,2013-07-27 23:34:00,
2013-07-27 18:39:00,70.7,51.1,29.94,NW,310,4.0,8.0,50,0.00,,,0.00,Wunderground v.1.15,2013-07-27 23:39:00,
2013-07-27 18:45:00,70.6,51.1,29.95,WNW,284,5.0,5.0,50,0.00,,,0.00,Wunderground v.1.15,2013-07-27 23:45:00,
2013-07-27 18:51:00,70.6,51.1,29.94,NW,306,5.0,6.0,50,0.00,,,0.00,Wunderground v.1.15,2013-07-27 23:51:00,
2013-07-27 18:56:00,70.3,50.8,29.94,WNW,283,5.0,8.0,50,0.00,,,0.00,Wunderground v.1.15,2013-07-27 23:56:00,
2013-07-27 19:02:00,70.3,51.3,29.94,WNW,296,4.0,4.0,51,0.00,,,0.00,Wunderground v.1.15,2013-07-28 00:02:00,
2013-07-27 19:07:00,70.2,50.7,29.94,NW,305,3.0,6.0,50,0.00,,,0.00,Wunderground v.1.15,2013-07-28 00:07:00,
2013-07-27 19:12:00,69.9,50.9,29.94,NW,304,5.0,7.0,51,0.00,,,0.00,Wunderground v.1.15,2013-07-28 00:12:00,
2013-07-27 19:18:00,69.6,51.2,29.95,WNW,297,4.0,7.0,52,0.00,,,0.00,Wunderground v.1.15,2013-07-28 00:18:00,
2013-07-27 19:24:00,69.2,51.3,29.95,WNW,290,3.0,4.0,53,0.00,,,0.00,Wunderground v.1.15,2013-07-28 00:24:00,
2013-07-27 19:30:00,68.7,51.9,29.95,West,278,2.0,3.0,55,0.00,,,0.00,Wunderground v.1.15,2013-07-28 00:30:00,
2013-07-27 19:35:00,68.5,52.2,29.94,WNW,282,2.0,3.0,56,0.00,,,0.00,Wunderground v.1.15,2013-07-28 00:35:00,
2013-07-27 19:41:00,68.3,52.0,29.95,WNW,283,1.0,3.0,56,0.00,,,0.00,Wunderground v.1.15,2013-07-28 00:41:00,
2013-07-27 19:46:00,68.1,52.8,29.94,WNW,283,1.0,3.0,58,0.00,,,0.00,Wunderground v.1.15,2013-07-28 00:46:00,
2013-07-27 19:52:00,67.7,53.3,29.94,West,281,0.0,1.0,60,0.00,,,0.00,Wunderground v.1.15,2013-07-28 00:52:00,
2013-07-27 19:57:00,67.3,53.4,29.94,WNW,282,0.0,1.0,61,0.00,,,0.00,Wunderground v.1.15,2013-07-28 00:57:00,
2013-07-27 20:03:00,66.8,53.4,29.95,WNW,283,0.0,1.0,62,0.00,,,0.00,Wunderground v.1.15,2013-07-28 01:03:00,
2013-07-27 20:09:00,66.3,53.8,29.95,WNW,283,0.0,1.0,64,0.00,,,0.00,Wunderground v.1.15,2013-07-28 01:09:00,
2013-07-27 20:15:00,65.8,53.3,29.95,WNW,283,0.0,1.0,64,0.00,,,0.00,Wunderground v.1.15,2013-07-28 01:15:00,
2013-07-27 20:21:00,65.1,53.0,29.95,WNW,283,0.0,1.0,65,0.00,,,0.00,Wunderground v.1.15,2013-07-28 01:21:00,
2013-07-27 20:27:00,64.5,53.3,29.95,WNW,282,1.0,1.0,67,0.00,,,0.00,Wunderground v.1.15,2013-07-28 01:27:00,
2013-07-27 20:32:00,64.1,53.7,29.95,West,279,1.0,1.0,69,0.00,,,0.00,Wunderground v.1.15,2013-07-28 01:32:00,
2013-07-27 20:37:00,63.7,53.3,29.95,WNW,282,1.0,2.0,69,0.00,,,0.00,Wunderground v.1.15,2013-07-28 01:37:00,
2013-07-27 20:43:00,63.2,53.6,29.95,WNW,283,1.0,1.0,71,0.00,,,0.00,Wunderground v.1.15,2013-07-28 01:43:00,
2013-07-27 20:49:00,62.7,53.9,29.95,WNW,285,0.0,1.0,73,0.00,,,0.00,Wunderground v.1.15,2013-07-28 01:49:00,
2013-07-27 20:55:00,62.4,54.0,29.95,West,277,0.0,1.0,74,0.00,,,0.00,Wunderground v.1.15,2013-07-28 01:55:00,
2013-07-27 21:00:00,62.0,54.0,29.95,WNW,283,1.0,1.0,75,0.00,,,0.00,Wunderground v.1.15,2013-07-28 02:00:00,
2013-07-27 21:06:00,61.7,53.7,29.95,WNW,283,0.0,1.0,75,0.00,,,0.00,Wunderground v.1.15,2013-07-28 02:06:00,
2013-07-27 21:11:00,61.5,53.9,29.96,West,277,0.0,1.0,76,0.00,,,0.00,Wunderground v.1.15,2013-07-28 02:11:00,
2013-07-27 21:16:00,61.3,53.7,29.96,WNW,282,0.0,2.0,76,0.00,,,0.00,Wunderground v.1.15,2013-07-28 02:16:00,
2013-07-27 21:21:00,61.0,53.4,29.96,WNW,287,0.0,0.0,76,0.00,,,0.00,Wunderground v.1.15,2013-07-28 02:21:00,
2013-07-27 21:27:00,60.7,53.1,29.96,West,281,0.0,2.0,76,0.00,,,0.00,Wunderground v.1.15,2013-07-28 02:27:00,
2013-07-27 21:33:00,60.4,53.2,29.96,WNW,285,1.0,1.0,77,0.00,,,0.00,Wunderground v.1.15,2013-07-28 02:33:00,
2013-07-27 21:38:00,60.2,53.0,29.97,West,281,0.0,1.0,77,0.00,,,0.00,Wunderground v.1.15,2013-07-28 02:38:00,
2013-07-27 21:43:00,60.0,53.1,29.97,West,281,0.0,1.0,78,0.00,,,0.00,Wunderground v.1.15,2013-07-28 02:43:00,
2013-07-27 21:49:00,59.8,53.3,29.97,WNW,282,1.0,2.0,79,0.00,,,0.00,Wunderground v.1.15,2013-07-28 02:49:00,
2013-07-27 21:55:00,59.7,53.5,29.97,WNW,283,1.0,1.0,80,0.00,,,0.00,Wunderground v.1.15,2013-07-28 02:55:00,
2013-07-27 22:00:00,59.6,53.4,29.98,West,279,1.0,1.0,80,0.00,,,0.00,Wunderground v.1.15,2013-07-28 03:00:00,
2013-07-27 22:06:00,59.4,53.2,29.98,West,278,0.0,1.0,80,0.00,,,0.00,Wunderground v.1.15,2013-07-28 03:06:00,
2013-07-27 22:12:00,59.2,53.4,29.98,West,281,1.0,2.0,81,0.00,,,0.00,Wunderground v.1.15,2013-07-28 03:12:00,
2013-07-27 22:18:00,59.2,53.4,29.98,West,279,1.0,3.0,81,0.00,,,0.00,Wunderground v.1.15,2013-07-28 03:18:00,
2013-07-27 22:24:00,59.3,53.5,29.98,WNW,283,1.0,1.0,81,0.00,,,0.00,Wunderground v.1.15,2013-07-28 03:24:00,
2013-07-27 22:30:00,59.2,53.4,29.98,West,279,1.0,1.0,81,0.00,,,0.00,Wunderground v.1.15,2013-07-28 03:30:00,
2013-07-27 22:35:00,59.0,53.2,29.98,WNW,283,1.0,1.0,81,0.00,,,0.00,Wunderground v.1.15,2013-07-28 03:35:00,
2013-07-27 22:41:00,58.8,52.6,29.98,WNW,283,0.0,1.0,80,0.00,,,0.00,Wunderground v.1.15,2013-07-28 03:41:00,
2013-07-27 22:46:00,58.7,52.9,29.98,West,281,0.0,1.0,81,0.00,,,0.00,Wunderground v.1.15,2013-07-28 03:46:00,
2013-07-27 22:52:00,58.5,52.7,29.98,WNW,283,1.0,1.0,81,0.00,,,0.00,Wunderground v.1.15,2013-07-28 03:52:00,
2013-07-27 22:57:00,58.4,52.6,29.98,WNW,283,1.0,2.0,81,0.00,,,0.00,Wunderground v.1.15,2013-07-28 03:57:00,
2013-07-27 23:01:00,58.2,52.4,29.98,West,280,1.0,1.0,81,0.00,,,0.00,Wunderground v.1.15,2013-07-28 04:01:00,
2013-07-27 23:02:00,58.2,52.7,29.98,WNW,283,1.0,1.0,82,0.00,,,0.00,Wunderground v.1.15,2013-07-28 04:02:00,
2013-07-27 23:05:00,58.1,52.6,29.98,West,281,0.0,1.0,82,0.00,,,0.00,Wunderground v.1.15,2013-07-28 04:05:00,
2013-07-27 23:06:00,58.1,52.6,29.98,WNW,282,0.0,1.0,82,0.00,,,0.00,Wunderground v.1.15,2013-07-28 04:06:00,
2013-07-27 23:11:00,57.9,52.4,29.98,WNW,285,0.0,1.0,82,0.00,,,0.00,Wunderground v.1.15,2013-07-28 04:11:00,
2013-07-27 23:14:00,57.9,52.4,29.98,WNW,284,0.0,1.0,82,0.00,,,0.00,Wunderground v.1.15,2013-07-28 04:14:00,
2013-07-27 23:19:00,57.7,52.6,29.98,WNW,283,0.0,1.0,83,0.00,,,0.00,Wunderground v.1.15,2013-07-28 04:19:00,
2013-07-27 23:24:00,57.7,52.6,29.98,WNW,283,1.0,1.0,83,0.00,,,0.00,Wunderground v.1.15,2013-07-28 04:24:00,
2013-07-27 23:30:00,57.5,52.4,29.98,WNW,283,0.0,0.0,83,0.00,,,0.00,Wunderground v.1.15,2013-07-28 04:30:00,
2013-07-27 23:35:00,57.3,52.2,29.98,WNW,284,0.0,1.0,83,0.00,,,0.00,Wunderground v.1.15,2013-07-28 04:35:00,
2013-07-27 23:41:00,57.4,52.6,29.98,WNW,283,0.0,2.0,84,0.00,,,0.00,Wunderground v.1.15,2013-07-28 04:41:00,
2013-07-27 23:47:00,57.3,52.2,29.98,WNW,283,0.0,2.0,83,0.00,,,0.00,Wunderground v.1.15,2013-07-28 04:47:00,
2013-07-27 23:53:00,57.2,52.1,29.98,West,281,0.0,2.0,83,0.00,,,0.00,Wunderground v.1.15,2013-07-28 04:53:00,
2013-07-27 23:58:00,57.1,52.0,29.98,WNW,283,0.0,2.0,83,0.00,,,0.00,Wunderground v.1.15,2013-07-28 04:58:00,